Sea Cloud II — 9HUE6 — position and weather

sailwx.info

Track history (hours):
 
Tides and Currents Weather Stations Pressure Air Temp Water Temp Dewpoint Dewpoint Depression Visibility Wind Speed Wind Dir Waves Ship Positions

Sea Cloud II

Ship's website: http://www.seacloud.com/en/the-ships/sea-cloud-ii.html

Last reported at 2017-Feb-21 16:32 UTC. Time now 2017-Feb-28 05:41 UTC.
Position N 09°11' W 079°52'.

Length 117 m; draft 5.9 m.

Type: Passenger vessel. MMSI: 248953000.

Date/timePositionNaut miles runAvg speedWind from/ knotsBaromVisibWave heightAir tempDewpointWater temp
2017-Feb-21 16:32N 09°11' W 079°52'5 5.0
2017-Feb-21 15:28N 09°15' W 079°55'0 0.2
2017-Feb-21 14:33N 09°15' W 079°55'3 1.6
2017-Feb-21 12:32N 09°18' W 079°55'4 4.5
2017-Feb-21 11:33N 09°22' W 079°55'0 0.0
2017-Feb-21 10:33N 09°22' W 079°55'0 0.0
2017-Feb-21 09:27N 09°22' W 079°55'0 0.0
2017-Feb-21 08:27N 09°22' W 079°55'0 0.0
2017-Feb-21 07:33N 09°22' W 079°55'0 0.0
2017-Feb-21 06:30N 09°22' W 079°55'0 0.0
2017-Feb-21 05:27N 09°22' W 079°55'0 0.0
2017-Feb-21 04:33N 09°22' W 079°55'0 0.1
2017-Feb-21 03:33N 09°23' W 079°55'2 1.5
2017-Feb-21 02:31N 09°24' W 079°54'2 2.4
2017-Feb-21 01:33N 09°21' W 079°53'0 0.0
2017-Feb-21 00:30N 09°21' W 079°53'0 0.0
2017-Feb-20 23:33N 09°21' W 079°53'0 0.0
2017-Feb-20 22:33N 09°21' W 079°53'0 0.0
2017-Feb-20 21:33N 09°21' W 079°53'0 0.0
2017-Feb-20 20:33N 09°21' W 079°53'0 0.0
2017-Feb-20 19:33N 09°21' W 079°53'0 0.0
2017-Feb-20 18:33N 09°21' W 079°53'0 0.0
2017-Feb-20 17:33N 09°21' W 079°53'0 0.0
2017-Feb-20 16:33N 09°21' W 079°53'0 0.0
2017-Feb-20 15:33N 09°21' W 079°53'0 0.0
2017-Feb-20 14:32N 09°21' W 079°53'0 0.0
2017-Feb-20 13:33N 09°21' W 079°53'0 0.0
2017-Feb-20 12:30N 09°21' W 079°53'1 1.5
2017-Feb-20 11:33N 09°23' W 079°54'  
Track history (hours):
 
Tides and Currents Weather Stations Pressure Air Temp Water Temp Dewpoint Dewpoint Depression Visibility Wind Speed Wind Dir Waves Ship Positions

Sea Cloud II

Ship's website: http://www.seacloud.com/en/the-ships/sea-cloud-ii.html

Last reported at 2017-Feb-21 16:32 UTC. Time now 2017-Feb-28 05:41 UTC.
Position N 09°11' W 079°52'.

Length 117 m; draft 5.9 m.

Type: Passenger vessel. MMSI: 248953000.

Date/timePositionNaut miles runAvg speedWind from/ knotsBaromVisibWave heightAir tempDewpointWater temp
2017-Feb-21 16:32N 09°11' W 079°52'5 5.0
2017-Feb-21 15:28N 09°15' W 079°55'0 0.2
2017-Feb-21 14:33N 09°15' W 079°55'3 1.6
2017-Feb-21 12:32N 09°18' W 079°55'4 4.5
2017-Feb-21 11:33N 09°22' W 079°55'0 0.0
2017-Feb-21 10:33N 09°22' W 079°55'0 0.0
2017-Feb-21 09:27N 09°22' W 079°55'0 0.0
2017-Feb-21 08:27N 09°22' W 079°55'0 0.0
2017-Feb-21 07:33N 09°22' W 079°55'0 0.0
2017-Feb-21 06:30N 09°22' W 079°55'0 0.0
2017-Feb-21 05:27N 09°22' W 079°55'0 0.0
2017-Feb-21 04:33N 09°22' W 079°55'0 0.1
2017-Feb-21 03:33N 09°23' W 079°55'2 1.5
2017-Feb-21 02:31N 09°24' W 079°54'2 2.4
2017-Feb-21 01:33N 09°21' W 079°53'0 0.0
2017-Feb-21 00:30N 09°21' W 079°53'0 0.0
2017-Feb-20 23:33N 09°21' W 079°53'0 0.0
2017-Feb-20 22:33N 09°21' W 079°53'0 0.0
2017-Feb-20 21:33N 09°21' W 079°53'0 0.0
2017-Feb-20 20:33N 09°21' W 079°53'0 0.0
2017-Feb-20 19:33N 09°21' W 079°53'0 0.0
2017-Feb-20 18:33N 09°21' W 079°53'0 0.0
2017-Feb-20 17:33N 09°21' W 079°53'0 0.0
2017-Feb-20 16:33N 09°21' W 079°53'0 0.0
2017-Feb-20 15:33N 09°21' W 079°53'0 0.0
2017-Feb-20 14:32N 09°21' W 079°53'0 0.0
2017-Feb-20 13:33N 09°21' W 079°53'0 0.0
2017-Feb-20 12:30N 09°21' W 079°53'1 1.5
2017-Feb-20 11:33N 09°23' W 079°54'  

Dump ship's entire track history